Time;durP1;ratioP1;P1;durP2;ratioP2;P2;SDS_P1;SDS_P2;PMS_P1;PMS_P2;Temp;Humidity;BMP_temperature;BMP_pressure;BME280_temperature;BME280_humidity;BME280_pressure;Samples;Min_cycle;Max_cycle;Signal;HPM_P1;HPM_P2
2023/05/16 00:01:12;;;;;;;31.33;17.73;;;;;;;;;;10224141;28;20078;-82
2023/05/16 00:06:14;;;;;;;36.47;20.60;;;;;;;;;;10199783;28;20130;-85
2023/05/16 00:11:16;;;;;;;29.40;18.98;;;;;;;;;;10241463;28;21585;-82
2023/05/16 00:16:20;;;;;;;28.75;17.88;;;;;;;;;;10241416;28;20090;-82
2023/05/16 00:21:21;;;;;;;25.00;16.40;;;;;;;;;;10230526;28;20106;-84
2023/05/16 00:26:22;;;;;;;26.80;17.67;;;;;;;;;;10241697;28;20064;-84
2023/05/16 00:31:23;;;;;;;24.90;17.88;;;;;;;;;;10222597;28;20056;-86
2023/05/16 00:36:24;;;;;;;25.90;17.80;;;;;;;;;;10221575;28;20047;-82
2023/05/16 00:41:25;;;;;;;27.00;17.73;;;;;;;;;;10249115;28;20372;-85
2023/05/16 00:46:26;;;;;;;31.85;21.98;;;;;;;;;;10241565;28;20043;-83
2023/05/16 00:51:27;;;;;;;43.20;25.85;;;;;;;;;;10230492;28;20826;-83
2023/05/16 00:56:28;;;;;;;39.42;25.40;;;;;;;;;;10235515;28;20037;-83
2023/05/16 01:01:30;;;;;;;34.97;23.15;;;;;;;;;;10243549;28;20054;-85
2023/05/16 01:06:32;;;;;;;33.78;24.10;;;;;;;;;;10228313;28;20133;-84
2023/05/16 01:11:45;;;;;;;36.30;24.60;;;;;;;;;;10221877;28;20038;-82
2023/05/16 01:16:53;;;;;;;36.63;24.33;;;;;;;;;;10229898;28;20115;-82
2023/05/16 01:22:04;;;;;;;29.88;20.92;;;;;;;;;;10245748;28;20050;-82
2023/05/16 01:27:05;;;;;;;33.50;22.80;;;;;;;;;;10239705;28;20035;-83
2023/05/16 01:32:06;;;;;;;27.48;18.08;;;;;;;;;;10228942;28;20143;-83
2023/05/16 01:37:20;;;;;;;27.42;17.95;;;;;;;;;;10246403;28;20431;-85
2023/05/16 01:42:24;;;;;;;21.70;14.63;;;;;;;;;;10227602;28;20043;-82
2023/05/16 01:47:26;;;;;;;22.45;15.90;;;;;;;;;;10244781;28;20038;-83
2023/05/16 01:52:28;;;;;;;21.35;14.77;;;;;;;;;;10220955;28;20035;-82
2023/05/16 01:57:29;;;;;;;22.92;15.45;;;;;;;;;;10225796;28;20039;-84
2023/05/16 02:02:31;;;;;;;25.15;16.83;;;;;;;;;;10239595;28;20126;-82
2023/05/16 02:07:32;;;;;;;23.70;15.00;;;;;;;;;;10242014;28;20036;-82
2023/05/16 02:12:33;;;;;;;26.65;15.57;;;;;;;;;;10245194;28;20023;-82
2023/05/16 02:17:33;;;;;;;32.70;18.58;;;;;;;;;;10228000;28;20031;-82
2023/05/16 02:22:35;;;;;;;28.42;16.33;;;;;;;;;;10225851;28;20055;-83
2023/05/16 02:27:36;;;;;;;31.40;18.17;;;;;;;;;;10243660;28;20059;-81
2023/05/16 02:32:38;;;;;;;33.85;22.20;;;;;;;;;;10244101;28;20114;-81
2023/05/16 02:37:39;;;;;;;31.83;19.45;;;;;;;;;;10235459;28;20727;-81
2023/05/16 02:42:40;;;;;;;32.67;19.33;;;;;;;;;;10226820;28;20118;-84
2023/05/16 02:47:41;;;;;;;30.30;18.05;;;;;;;;;;10221165;28;20065;-81
2023/05/16 02:52:42;;;;;;;24.77;15.17;;;;;;;;;;10240237;28;20428;-82
2023/05/16 02:57:45;;;;;;;26.80;16.03;;;;;;;;;;10214512;28;20072;-82
2023/05/16 03:02:46;;;;;;;30.33;18.00;;;;;;;;;;10243070;28;20089;-82
2023/05/16 03:07:47;;;;;;;27.50;16.42;;;;;;;;;;10234065;28;20046;-83
2023/05/16 03:12:48;;;;;;;27.77;17.40;;;;;;;;;;10241657;28;20039;-81
2023/05/16 03:17:50;;;;;;;26.35;17.48;;;;;;;;;;10242604;28;20038;-82
2023/05/16 03:22:52;;;;;;;33.15;19.13;;;;;;;;;;10236039;28;20455;-83
2023/05/16 03:27:53;;;;;;;26.02;16.98;;;;;;;;;;10242674;28;20031;-80
2023/05/16 03:32:54;;;;;;;31.77;18.35;;;;;;;;;;10242736;28;20037;-82
2023/05/16 03:37:55;;;;;;;26.43;17.53;;;;;;;;;;10236189;28;20042;-82
2023/05/16 03:42:56;;;;;;;29.65;17.90;;;;;;;;;;10232266;28;20039;-83
2023/05/16 03:47:57;;;;;;;25.40;16.08;;;;;;;;;;10242232;28;20122;-82
2023/05/16 03:52:58;;;;;;;24.73;15.88;;;;;;;;;;10223953;28;20031;-81
2023/05/16 03:57:59;;;;;;;31.30;17.02;;;;;;;;;;10254686;28;20411;-81
2023/05/16 04:03:00;;;;;;;27.80;17.85;;;;;;;;;;10240790;28;20082;-82
2023/05/16 04:08:01;;;;;;;29.83;18.83;;;;;;;;;;10244571;28;20024;-82
2023/05/16 04:13:04;;;;;;;29.52;17.98;;;;;;;;;;10250499;28;20085;-81
2023/05/16 04:18:05;;;;;;;29.83;18.15;;;;;;;;;;10248410;28;20043;-83
2023/05/16 04:23:10;;;;;;;26.58;16.25;;;;;;;;;;10239440;28;20043;-82
2023/05/16 04:28:11;;;;;;;26.13;17.23;;;;;;;;;;10241332;28;20394;-81
2023/05/16 04:33:12;;;;;;;28.48;19.02;;;;;;;;;;10231402;28;20038;-82
2023/05/16 04:38:13;;;;;;;25.50;17.17;;;;;;;;;;10216227;28;20036;-83
2023/05/16 04:43:14;;;;;;;28.45;17.48;;;;;;;;;;10245272;28;20031;-83
2023/05/16 04:48:16;;;;;;;24.13;17.20;;;;;;;;;;10248073;28;20020;-83
2023/05/16 04:53:17;;;;;;;27.60;16.88;;;;;;;;;;10261219;28;20506;-83
2023/05/16 04:58:17;;;;;;;26.85;17.27;;;;;;;;;;10248166;28;20037;-85
2023/05/16 05:03:19;;;;;;;26.33;15.30;;;;;;;;;;10230308;28;20042;-83
2023/05/16 05:08:21;;;;;;;22.58;14.35;;;;;;;;;;10247284;28;20035;-83
2023/05/16 05:13:23;;;;;;;20.65;13.55;;;;;;;;;;10247837;28;20028;-83
2023/05/16 05:18:25;;;;;;;17.00;12.10;;;;;;;;;;10246908;28;20070;-82
2023/05/16 05:23:26;;;;;;;20.23;12.88;;;;;;;;;;10247147;28;20045;-83
2023/05/16 05:28:26;;;;;;;15.27;11.23;;;;;;;;;;10247418;28;20546;-83
2023/05/16 05:33:28;;;;;;;19.65;11.73;;;;;;;;;;10246418;28;20035;-83
2023/05/16 05:38:29;;;;;;;19.10;12.18;;;;;;;;;;10246371;28;20031;-82
2023/05/16 05:43:30;;;;;;;17.23;11.63;;;;;;;;;;10234116;28;20043;-83
2023/05/16 05:48:31;;;;;;;16.48;11.38;;;;;;;;;;10246774;28;20035;-84
2023/05/16 05:53:37;;;;;;;18.48;12.20;;;;;;;;;;10246010;28;20123;-83
2023/05/16 05:58:42;;;;;;;19.73;12.90;;;;;;;;;;10245106;28;20033;-84
2023/05/16 06:03:46;;;;;;;16.20;12.17;;;;;;;;;;10228062;29;20063;-83
2023/05/16 06:08:48;;;;;;;18.25;11.52;;;;;;;;;;10245341;29;20866;-83
2023/05/16 06:13:49;;;;;;;16.23;11.13;;;;;;;;;;10245636;29;20531;-84
2023/05/16 06:18:50;;;;;;;19.23;14.40;;;;;;;;;;10245129;29;20034;-83
2023/05/16 06:23:55;;;;;;;16.08;12.52;;;;;;;;;;10227224;29;20046;-84
2023/05/16 06:28:56;;;;;;;17.30;12.18;;;;;;;;;;10244367;28;20212;-83
2023/05/16 06:33:56;;;;;;;16.95;10.63;;;;;;;;;;10244698;29;20038;-84
2023/05/16 06:38:57;;;;;;;15.38;9.73;;;;;;;;;;10244995;29;20035;-84
2023/05/16 06:43:59;;;;;;;12.40;9.20;;;;;;;;;;10244389;29;20039;-82
2023/05/16 06:49:01;;;;;;;12.10;8.90;;;;;;;;;;10244129;29;20023;-83
2023/05/16 06:54:02;;;;;;;12.73;8.50;;;;;;;;;;10244344;29;20039;-83
2023/05/16 06:59:03;;;;;;;9.40;7.82;;;;;;;;;;10244585;29;20031;-84
2023/05/16 07:04:04;;;;;;;9.65;7.50;;;;;;;;;;10225968;29;20059;-84
2023/05/16 07:09:06;;;;;;;10.15;7.45;;;;;;;;;;10243234;29;20035;-84
2023/05/16 07:14:07;;;;;;;9.68;6.97;;;;;;;;;;10243072;29;20479;-84
2023/05/16 07:19:08;;;;;;;8.70;6.70;;;;;;;;;;10243229;29;20035;-85
2023/05/16 07:24:10;;;;;;;10.30;7.28;;;;;;;;;;10225146;29;20031;-84
2023/05/16 07:29:11;;;;;;;8.55;6.45;;;;;;;;;;10242675;29;20613;-84
2023/05/16 07:34:12;;;;;;;7.85;7.00;;;;;;;;;;10241813;29;20435;-85
2023/05/16 07:39:13;;;;;;;7.32;6.13;;;;;;;;;;10242529;28;20402;-85
2023/05/16 07:44:14;;;;;;;8.80;6.40;;;;;;;;;;10241669;29;20066;-84
2023/05/16 07:49:17;;;;;;;8.48;6.57;;;;;;;;;;10224944;29;20130;-85
2023/05/16 07:54:18;;;;;;;13.68;7.63;;;;;;;;;;10242717;29;20032;-85
2023/05/16 07:59:19;;;;;;;8.45;6.70;;;;;;;;;;10241447;29;20400;-84
2023/05/16 08:04:20;;;;;;;7.63;6.80;;;;;;;;;;10229453;28;20566;-84
2023/05/16 08:09:21;;;;;;;7.07;6.35;;;;;;;;;;10254772;28;20407;-83
2023/05/16 08:14:22;;;;;;;9.50;6.97;;;;;;;;;;10241528;28;20031;-83
2023/05/16 08:19:23;;;;;;;8.82;6.93;;;;;;;;;;10224066;28;20035;-84
2023/05/16 08:24:24;;;;;;;10.15;6.68;;;;;;;;;;10240894;28;20520;-85
2023/05/16 08:29:25;;;;;;;8.43;6.60;;;;;;;;;;10241603;28;20027;-84
2023/05/16 08:34:26;;;;;;;8.57;6.45;;;;;;;;;;10224078;28;20079;-84
2023/05/16 08:39:29;;;;;;;7.82;6.97;;;;;;;;;;10223860;28;20122;-83
2023/05/16 08:44:30;;;;;;;9.25;6.25;;;;;;;;;;10240951;28;20039;-84
2023/05/16 08:49:32;;;;;;;8.18;7.05;;;;;;;;;;10240322;28;20094;-84
2023/05/16 08:54:33;;;;;;;7.28;6.57;;;;;;;;;;10229243;28;20066;-85
2023/05/16 08:59:35;;;;;;;9.38;6.55;;;;;;;;;;10248219;28;20027;-85
2023/05/16 09:04:36;;;;;;;7.13;6.43;;;;;;;;;;10247667;28;20055;-86
2023/05/16 09:09:37;;;;;;;8.40;6.55;;;;;;;;;;10247689;28;20467;-86
2023/05/16 09:14:38;;;;;;;6.88;6.18;;;;;;;;;;10230318;28;20138;-85
2023/05/16 09:19:40;;;;;;;8.68;6.68;;;;;;;;;;10230709;28;20035;-84
2023/05/16 09:24:41;;;;;;;14.77;6.13;;;;;;;;;;10247384;28;20549;-84
2023/05/16 09:29:43;;;;;;;9.18;5.80;;;;;;;;;;10229828;28;20031;-84
2023/05/16 09:34:48;;;;;;;6.32;5.53;;;;;;;;;;10246552;28;20094;-84
2023/05/16 09:39:50;;;;;;;6.93;6.18;;;;;;;;;;10240281;28;20031;-85
2023/05/16 09:44:53;;;;;;;8.23;5.95;;;;;;;;;;10243047;28;20038;-84
2023/05/16 09:49:57;;;;;;;6.05;5.45;;;;;;;;;;10246171;28;20483;-84
2023/05/16 09:54:58;;;;;;;8.05;5.70;;;;;;;;;;10245852;28;20031;-83
2023/05/16 10:00:04;;;;;;;7.95;5.43;;;;;;;;;;10228324;28;20027;-84
2023/05/16 10:05:06;;;;;;;6.68;5.50;;;;;;;;;;10245385;28;20114;-84
2023/05/16 10:10:07;;;;;;;7.47;5.13;;;;;;;;;;10245544;28;20023;-84
2023/05/16 10:15:09;;;;;;;8.93;5.60;;;;;;;;;;10227884;28;20451;-85
2023/05/16 10:20:11;;;;;;;7.63;5.10;;;;;;;;;;10245505;28;20050;-84
2023/05/16 10:25:15;;;;;;;5.43;4.90;;;;;;;;;;10227420;28;20398;-85
2023/05/16 10:30:16;;;;;;;4.97;4.57;;;;;;;;;;10245567;28;20452;-84
2023/05/16 10:35:17;;;;;;;7.28;4.82;;;;;;;;;;10244109;28;20046;-83
2023/05/16 10:40:18;;;;;;;7.75;5.80;;;;;;;;;;10258830;28;20046;-83
2023/05/16 10:45:19;;;;;;;5.65;5.13;;;;;;;;;;10254643;28;20027;-84
2023/05/16 10:50:40;;;;;;;5.43;4.93;;;;;;;;;;10243948;28;20015;-85
2023/05/16 10:55:44;;;;;;;6.20;5.22;;;;;;;;;;10243904;28;20054;-84
2023/05/16 11:00:47;;;;;;;7.20;6.00;;;;;;;;;;10242955;28;20105;-84
2023/05/16 11:05:51;;;;;;;5.38;4.88;;;;;;;;;;10243431;28;20134;-84
2023/05/16 11:11:12;;;;;;;6.65;5.70;;;;;;;;;;10243475;28;20051;-84
2023/05/16 11:16:28;;;;;;;6.30;5.30;;;;;;;;;;10243896;28;20034;-84
2023/05/16 11:21:50;;;;;;;6.38;5.07;;;;;;;;;;10243112;28;20039;-84
2023/05/16 11:26:53;;;;;;;5.63;4.22;;;;;;;;;;10225974;28;20036;-84
2023/05/16 11:31:55;;;;;;;5.32;4.10;;;;;;;;;;10242804;28;20419;-84
2023/05/16 11:36:56;;;;;;;6.32;4.43;;;;;;;;;;10242023;28;20046;-82
2023/05/16 11:41:57;;;;;;;4.60;4.20;;;;;;;;;;10242826;28;20162;-82
2023/05/16 11:47:00;;;;;;;4.90;4.40;;;;;;;;;;10243215;28;20488;-85
2023/05/16 11:52:02;;;;;;;6.18;3.72;;;;;;;;;;10224488;28;20372;-83
2023/05/16 11:57:03;;;;;;;6.28;4.50;;;;;;;;;;10225161;28;20835;-84
2023/05/16 12:02:08;;;;;;;4.65;4.15;;;;;;;;;;10242360;28;20066;-83
2023/05/16 12:07:09;;;;;;;4.05;3.72;;;;;;;;;;10224495;28;20090;-84
2023/05/16 12:12:10;;;;;;;4.75;4.05;;;;;;;;;;10241809;28;20051;-85
2023/05/16 12:17:11;;;;;;;5.28;4.07;;;;;;;;;;10242337;28;20023;-84
2023/05/16 12:22:18;;;;;;;6.28;4.15;;;;;;;;;;10241072;28;20062;-83
2023/05/16 12:27:22;;;;;;;5.25;4.50;;;;;;;;;;10244353;28;20046;-83
2023/05/16 12:32:25;;;;;;;4.70;4.15;;;;;;;;;;10249574;28;20067;-85
2023/05/16 12:37:28;;;;;;;4.53;4.13;;;;;;;;;;10226338;28;20039;-84
2023/05/16 12:42:30;;;;;;;4.60;4.10;;;;;;;;;;10248199;28;20031;-85
2023/05/16 12:47:35;;;;;;;5.72;4.88;;;;;;;;;;10231375;28;20046;-83
2023/05/16 12:52:36;;;;;;;5.13;4.35;;;;;;;;;;10231898;28;20031;-84
2023/05/16 12:57:37;;;;;;;5.15;4.35;;;;;;;;;;10248608;28;20039;-83
2023/05/16 13:02:38;;;;;;;9.85;4.78;;;;;;;;;;10231051;28;20055;-84
2023/05/16 13:07:39;;;;;;;7.13;4.72;;;;;;;;;;10231134;28;20038;-84
2023/05/16 13:12:42;;;;;;;5.38;4.20;;;;;;;;;;10248160;28;20415;-85
2023/05/16 13:17:43;;;;;;;5.65;4.65;;;;;;;;;;10230452;28;20034;-84
2023/05/16 13:22:45;;;;;;;5.30;4.80;;;;;;;;;;10246672;28;20134;-84
2023/05/16 13:27:48;;;;;;;5.72;4.82;;;;;;;;;;10247797;28;20109;-84
2023/05/16 13:32:49;;;;;;;9.98;6.32;;;;;;;;;;10234472;28;20031;-83
2023/05/16 13:37:50;;;;;;;6.93;5.05;;;;;;;;;;10235411;28;20039;-82
2023/05/16 13:42:51;;;;;;;7.07;5.10;;;;;;;;;;10227789;28;20042;-84
2023/05/16 13:47:53;;;;;;;8.55;5.38;;;;;;;;;;10239666;28;20031;-81
2023/05/16 13:52:55;;;;;;;6.90;4.75;;;;;;;;;;10236881;28;20037;-84
2023/05/16 13:57:56;;;;;;;6.30;4.82;;;;;;;;;;10229895;28;20492;-82
2023/05/16 14:02:57;;;;;;;5.82;4.85;;;;;;;;;;10246943;28;20713;-83
2023/05/16 14:07:58;;;;;;;6.45;5.32;;;;;;;;;;10228657;28;20063;-84
2023/05/16 14:12:59;;;;;;;6.50;5.10;;;;;;;;;;10244330;28;20610;-85
2023/05/16 14:18:00;;;;;;;7.07;5.28;;;;;;;;;;10235901;28;20122;-83
2023/05/16 14:23:01;;;;;;;6.28;5.10;;;;;;;;;;10245264;28;20799;-83
2023/05/16 14:28:02;;;;;;;4.95;4.43;;;;;;;;;;10235214;28;20090;-84
2023/05/16 14:33:03;;;;;;;6.25;5.25;;;;;;;;;;10247793;28;20280;-83
2023/05/16 14:38:04;;;;;;;6.32;4.55;;;;;;;;;;10226933;28;20074;-83
2023/05/16 14:43:05;;;;;;;5.75;4.47;;;;;;;;;;10226603;28;20103;-84
2023/05/16 14:48:08;;;;;;;5.72;4.45;;;;;;;;;;10227135;28;20642;-83
2023/05/16 14:53:09;;;;;;;6.30;4.38;;;;;;;;;;10235977;28;20035;-84
2023/05/16 14:58:11;;;;;;;5.10;4.60;;;;;;;;;;10225810;28;20039;-85
2023/05/16 15:03:12;;;;;;;5.32;4.57;;;;;;;;;;10239438;28;20051;-83
2023/05/16 15:08:13;;;;;;;8.65;5.63;;;;;;;;;;10244688;28;20026;-84
2023/05/16 15:13:14;;;;;;;7.70;5.82;;;;;;;;;;10249630;28;20035;-85
2023/05/16 15:18:15;;;;;;;6.10;5.50;;;;;;;;;;10242852;28;20653;-84
2023/05/16 15:23:17;;;;;;;9.02;6.47;;;;;;;;;;10254070;28;20047;-83
2023/05/16 15:28:20;;;;;;;9.48;6.88;;;;;;;;;;10230499;28;20047;-85
2023/05/16 15:33:21;;;;;;;9.68;7.90;;;;;;;;;;10236893;28;20050;-82
2023/05/16 15:38:22;;;;;;;11.57;8.68;;;;;;;;;;10243356;28;20031;-83
2023/05/16 15:43:23;;;;;;;12.45;9.73;;;;;;;;;;10218746;28;20098;-83
2023/05/16 15:48:24;;;;;;;15.55;10.38;;;;;;;;;;10239747;28;20044;-83
2023/05/16 15:53:25;;;;;;;16.77;9.15;;;;;;;;;;10242204;28;20032;-84
2023/05/16 15:58:26;;;;;;;13.88;10.07;;;;;;;;;;10241762;28;20114;-84
2023/05/16 16:03:27;;;;;;;15.65;10.77;;;;;;;;;;10221992;28;20110;-83
2023/05/16 16:08:30;;;;;;;18.73;12.20;;;;;;;;;;10240047;28;20042;-84
2023/05/16 16:13:31;;;;;;;24.45;15.52;;;;;;;;;;10232337;28;20035;-83
2023/05/16 16:18:33;;;;;;;28.38;17.95;;;;;;;;;;10241659;28;20027;-85
2023/05/16 16:23:34;;;;;;;21.88;13.60;;;;;;;;;;10241148;28;20078;-84
2023/05/16 16:28:35;;;;;;;20.67;14.43;;;;;;;;;;10224014;28;20066;-82
2023/05/16 16:33:36;;;;;;;29.15;18.55;;;;;;;;;;10238525;28;20027;-83
2023/05/16 16:38:37;;;;;;;25.92;17.70;;;;;;;;;;10223894;28;20035;-83
2023/05/16 16:43:43;;;;;;;24.50;16.85;;;;;;;;;;10239215;28;20126;-84
2023/05/16 16:48:44;;;;;;;26.33;17.40;;;;;;;;;;10216520;28;20036;-85
2023/05/16 16:53:45;;;;;;;23.77;16.15;;;;;;;;;;10234814;28;20515;-86
2023/05/16 16:58:46;;;;;;;29.27;18.77;;;;;;;;;;10220876;28;20031;-83
2023/05/16 17:03:47;;;;;;;36.08;22.42;;;;;;;;;;10186857;29;20504;-83
2023/05/16 17:08:52;;;;;;;34.90;22.63;;;;;;;;;;10198864;29;20039;-84
2023/05/16 17:13:57;;;;;;;42.60;24.23;;;;;;;;;;10204047;29;20849;-85
2023/05/16 17:19:00;;;;;;;;;;;;;;;;;;10206601;29;20032;-83
2023/05/16 17:24:05;;;;;;;62.60;29.60;;;;;;;;;;10204884;29;19923;-83
2023/05/16 17:29:08;;;;;;;97.10;34.75;;;;;;;;;;10204234;29;20054;-84
2023/05/16 17:34:09;;;;;;;56.70;27.67;;;;;;;;;;10201452;29;20507;-83
2023/05/16 17:39:10;;;;;;;55.50;26.42;;;;;;;;;;10206755;29;20034;-84
2023/05/16 17:44:11;;;;;;;66.63;29.10;;;;;;;;;;10206317;29;20031;-83
2023/05/16 17:49:12;;;;;;;117.55;41.55;;;;;;;;;;10205382;29;20035;-83
2023/05/16 17:54:14;;;;;;;60.75;32.45;;;;;;;;;;10205904;29;20114;-84
2023/05/16 17:59:15;;;;;;;286.08;69.25;;;;;;;;;;10203080;29;20488;-85
2023/05/16 18:04:19;;;;;;;56.50;29.35;;;;;;;;;;10231042;28;20419;-88
2023/05/16 18:09:20;;;;;;;52.78;29.02;;;;;;;;;;10210910;28;20043;-84
2023/05/16 18:14:21;;;;;;;73.50;32.17;;;;;;;;;;10224798;28;20095;-83
2023/05/16 18:19:22;;;;;;;59.13;29.95;;;;;;;;;;10240683;28;20028;-85
2023/05/16 18:24:25;;;;;;;58.85;29.67;;;;;;;;;;10244016;28;20047;-84
2023/05/16 18:29:26;;;;;;;84.72;34.08;;;;;;;;;;10240787;28;20042;-84
2023/05/16 18:34:29;;;;;;;243.50;63.60;;;;;;;;;;10244184;28;20054;-84
2023/05/16 18:39:30;;;;;;;77.60;36.50;;;;;;;;;;10242820;28;20035;-84
2023/05/16 18:44:31;;;;;;;80.30;38.65;;;;;;;;;;10232979;28;20547;-84
2023/05/16 18:49:37;;;;;;;63.00;32.30;;;;;;;;;;10242653;28;20041;-85
2023/05/16 18:54:38;;;;;;;62.13;31.90;;;;;;;;;;10225526;28;20483;-87
2023/05/16 18:59:39;;;;;;;57.90;30.02;;;;;;;;;;10243205;28;20031;-87
2023/05/16 19:04:44;;;;;;;71.18;32.80;;;;;;;;;;10242359;28;20106;-87
2023/05/16 19:09:45;;;;;;;52.30;28.48;;;;;;;;;;10242599;28;20031;-86
2023/05/16 19:14:48;;;;;;;71.90;32.80;;;;;;;;;;10238213;28;20035;-86
2023/05/16 19:19:49;;;;;;;61.13;30.70;;;;;;;;;;10230051;28;20031;-83
2023/05/16 19:24:50;;;;;;;57.13;28.88;;;;;;;;;;10238419;28;20043;-86
2023/05/16 19:29:51;;;;;;;52.75;27.10;;;;;;;;;;10229258;28;20074;-87
2023/05/16 19:34:52;;;;;;;39.92;21.95;;;;;;;;;;10222535;28;20046;-87
2023/05/16 19:39:53;;;;;;;42.05;23.08;;;;;;;;;;10240870;28;20030;-87
2023/05/16 19:44:54;;;;;;;50.90;25.95;;;;;;;;;;10216235;28;20098;-86
2023/05/16 19:49:56;;;;;;;61.65;32.38;;;;;;;;;;10241047;28;20443;-87
2023/05/16 19:54:57;;;;;;;56.08;28.85;;;;;;;;;;10224206;28;20035;-87
2023/05/16 19:59:57;;;;;;;51.92;26.30;;;;;;;;;;10239301;28;20041;-87
2023/05/16 20:04:58;;;;;;;48.40;25.42;;;;;;;;;;10200323;29;20380;-87
2023/05/16 20:09:59;;;;;;;51.83;26.30;;;;;;;;;;10200877;29;20479;-89
2023/05/16 20:15:00;;;;;;;48.35;25.13;;;;;;;;;;10201222;29;20039;-89
2023/05/16 20:20:06;;;;;;;43.22;24.33;;;;;;;;;;10202617;29;20078;-92
2023/05/16 20:25:07;;;;;;;49.63;25.85;;;;;;;;;;10213644;29;20491;-90
2023/05/16 20:30:09;;;;;;;39.35;22.83;;;;;;;;;;10193731;29;20046;-89
2023/05/16 20:35:16;;;;;;;42.33;23.10;;;;;;;;;;10215603;28;20734;-89
2023/05/16 20:40:22;;;;;;;35.05;22.25;;;;;;;;;;10199555;29;20166;-91
2023/05/16 20:51:07;;;;;;;29.92;18.10;;;;;;;;;;10197737;29;20400;-90
2023/05/16 20:56:15;;;;;;;27.85;17.50;;;;;;;;;;10187483;29;20071;-90
2023/05/16 21:07:16;;;;;;;24.80;15.77;;;;;;;;;;10244773;28;20052;-91
2023/05/16 21:12:46;;;;;;;32.73;18.27;;;;;;;;;;10223035;28;20032;-91
2023/05/16 21:35:11;;;;;;;25.95;15.80;;;;;;;;;;10199675;28;20033;-90
2023/05/16 21:40:23;;;;;;;47.95;21.90;;;;;;;;;;10228223;28;20093;-91
2023/05/16 21:45:24;;;;;;;38.65;19.67;;;;;;;;;;10218909;28;20062;-91
2023/05/16 21:50:35;;;;;;;33.47;18.20;;;;;;;;;;10236347;28;20787;-91
2023/05/16 21:55:41;;;;;;;26.70;16.23;;;;;;;;;;10247082;28;20431;-91
2023/05/16 22:00:48;;;;;;;36.60;19.23;;;;;;;;;;10225515;28;20403;-91
2023/05/16 22:06:20;;;;;;;22.80;14.02;;;;;;;;;;10244832;28;20063;-92
2023/05/16 22:11:22;;;;;;;23.48;13.95;;;;;;;;;;10211684;28;20268;-91
2023/05/16 22:16:24;;;;;;;23.83;13.85;;;;;;;;;;10222954;28;20042;-90
2023/05/16 22:22:00;;;;;;;19.23;11.95;;;;;;;;;;10222236;28;20174;-91
2023/05/16 22:27:13;;;;;;;25.50;14.07;;;;;;;;;;10136169;29;20056;-92
2023/05/16 22:32:23;;;;;;;33.97;17.38;;;;;;;;;;10144895;29;20044;-90
2023/05/16 22:37:35;;;;;;;24.65;15.68;;;;;;;;;;10130384;29;20040;-91
2023/05/16 22:42:36;;;;;;;22.05;13.88;;;;;;;;;;10143539;29;20048;-91
2023/05/16 22:47:37;;;;;;;21.10;13.27;;;;;;;;;;10144904;29;20052;-91
2023/05/16 22:53:14;;;;;;;22.40;12.80;;;;;;;;;;10133914;29;20051;-92
2023/05/16 22:58:20;;;;;;;23.13;13.63;;;;;;;;;;10146318;29;20584;-90
2023/05/16 23:03:21;;;;;;;23.23;13.45;;;;;;;;;;10224919;28;20419;-91
2023/05/16 23:08:36;;;;;;;20.88;13.00;;;;;;;;;;10225034;28;20074;-89
2023/05/16 23:19:04;;;;;;;27.35;14.93;;;;;;;;;;10243494;28;20415;-90
2023/05/16 23:24:40;;;;;;;22.05;13.70;;;;;;;;;;10222174;28;20027;-91
2023/05/16 23:29:46;;;;;;;23.07;14.13;;;;;;;;;;10236522;28;20050;-90
2023/05/16 23:35:35;;;;;;;20.10;12.77;;;;;;;;;;10223984;28;20395;-89
2023/05/16 23:40:17;;;;;;;22.85;13.95;;;;;;;;;;10230616;28;20403;-91
2023/05/16 23:45:36;;;;;;;21.60;13.15;;;;;;;;;;10223433;28;20114;-89
2023/05/16 23:56:38;;;;;;;25.73;13.02;;;;;;;;;;10079552;29;20430;-91
